sensor_id;sensor_type;location;lat;lon;timestamp;pressure;altitude;pressure_sealevel;temperature;humidity
18607;BME280;9433;42.678;23.360;2022-07-24T00:01:00;95312.47;;;26.98;38.90
18607;BME280;9433;42.678;23.360;2022-07-24T00:03:27;95307.41;;;27.53;37.71
18607;BME280;9433;42.678;23.360;2022-07-24T00:05:55;95305.06;;;27.82;36.99
18607;BME280;9433;42.678;23.360;2022-07-24T00:08:22;95308.25;;;27.27;37.96
18607;BME280;9433;42.678;23.360;2022-07-24T00:10:49;95312.59;;;27.05;38.53
18607;BME280;9433;42.678;23.360;2022-07-24T00:13:16;95310.41;;;27.14;38.43
18607;BME280;9433;42.678;23.360;2022-07-24T00:15:43;95311.44;;;27.33;38.41
18607;BME280;9433;42.678;23.360;2022-07-24T00:18:10;95312.88;;;27.23;38.46
18607;BME280;9433;42.678;23.360;2022-07-24T00:20:36;95313.88;;;27.41;37.56
18607;BME280;9433;42.678;23.360;2022-07-24T00:23:05;95318.59;;;26.65;39.12
18607;BME280;9433;42.678;23.360;2022-07-24T00:25:31;95312.69;;;26.40;39.35
18607;BME280;9433;42.678;23.360;2022-07-24T00:27:58;95312.41;;;26.68;39.59
18607;BME280;9433;42.678;23.360;2022-07-24T00:30:25;95317.47;;;26.23;40.76
18607;BME280;9433;42.678;23.360;2022-07-24T00:32:52;95314.34;;;26.67;39.65
18607;BME280;9433;42.678;23.360;2022-07-24T00:35:18;95311.72;;;26.29;40.77
18607;BME280;9433;42.678;23.360;2022-07-24T00:37:45;95309.00;;;26.75;39.57
18607;BME280;9433;42.678;23.360;2022-07-24T00:40:14;95304.00;;;26.11;41.00
18607;BME280;9433;42.678;23.360;2022-07-24T00:42:42;95304.78;;;26.54;40.38
18607;BME280;9433;42.678;23.360;2022-07-24T00:45:09;95305.34;;;25.98;41.87
18607;BME280;9433;42.678;23.360;2022-07-24T00:47:36;95303.53;;;26.29;41.04
18607;BME280;9433;42.678;23.360;2022-07-24T00:50:04;95308.06;;;26.63;40.15
18607;BME280;9433;42.678;23.360;2022-07-24T00:52:32;95309.25;;;26.20;41.52
18607;BME280;9433;42.678;23.360;2022-07-24T00:54:59;95306.91;;;25.80;42.28
18607;BME280;9433;42.678;23.360;2022-07-24T00:57:27;95311.81;;;26.55;40.57
18607;BME280;9433;42.678;23.360;2022-07-24T00:59:54;95310.22;;;26.31;40.65
18607;BME280;9433;42.678;23.360;2022-07-24T01:02:20;95307.97;;;26.37;41.16
18607;BME280;9433;42.678;23.360;2022-07-24T01:04:48;95306.13;;;25.98;41.88
18607;BME280;9433;42.678;23.360;2022-07-24T01:07:15;95283.81;;;26.58;40.72
18607;BME280;9433;42.678;23.360;2022-07-24T01:09:41;95309.47;;;26.34;41.33
18607;BME280;9433;42.678;23.360;2022-07-24T01:12:09;95305.41;;;26.01;41.94
18607;BME280;9433;42.678;23.360;2022-07-24T01:14:37;95310.22;;;26.31;41.63
18607;BME280;9433;42.678;23.360;2022-07-24T01:17:05;95311.69;;;26.06;42.04
18607;BME280;9433;42.678;23.360;2022-07-24T01:19:32;95319.38;;;25.61;42.67
18607;BME280;9433;42.678;23.360;2022-07-24T01:22:00;95313.13;;;25.61;43.12
18607;BME280;9433;42.678;23.360;2022-07-24T01:24:26;95306.03;;;25.75;43.03
18607;BME280;9433;42.678;23.360;2022-07-24T01:26:53;95282.47;;;26.25;41.39
18607;BME280;9433;42.678;23.360;2022-07-24T01:29:20;95296.47;;;26.24;41.73
18607;BME280;9433;42.678;23.360;2022-07-24T01:31:47;95295.00;;;26.30;41.44
18607;BME280;9433;42.678;23.360;2022-07-24T01:34:14;95297.34;;;26.09;41.85
18607;BME280;9433;42.678;23.360;2022-07-24T01:36:41;95296.03;;;26.45;41.46
18607;BME280;9433;42.678;23.360;2022-07-24T01:39:09;95302.53;;;25.55;42.69
18607;BME280;9433;42.678;23.360;2022-07-24T01:41:36;95282.59;;;26.10;41.99
18607;BME280;9433;42.678;23.360;2022-07-24T01:44:03;95292.75;;;25.90;42.50
18607;BME280;9433;42.678;23.360;2022-07-24T01:46:30;95293.13;;;26.34;41.57
18607;BME280;9433;42.678;23.360;2022-07-24T01:48:57;95288.72;;;25.84;42.87
18607;BME280;9433;42.678;23.360;2022-07-24T01:51:23;95286.44;;;25.47;43.30
18607;BME280;9433;42.678;23.360;2022-07-24T01:53:50;95275.66;;;25.73;43.06
18607;BME280;9433;42.678;23.360;2022-07-24T01:56:18;95279.25;;;25.97;42.30
18607;BME280;9433;42.678;23.360;2022-07-24T01:58:45;95273.75;;;25.35;44.03
18607;BME280;9433;42.678;23.360;2022-07-24T02:01:12;95289.00;;;25.40;44.02
18607;BME280;9433;42.678;23.360;2022-07-24T02:03:38;95275.31;;;25.55;43.27
18607;BME280;9433;42.678;23.360;2022-07-24T02:06:06;95279.38;;;26.27;42.36
18607;BME280;9433;42.678;23.360;2022-07-24T02:08:32;95279.38;;;26.27;42.13
18607;BME280;9433;42.678;23.360;2022-07-24T02:10:59;95280.81;;;25.20;44.25
18607;BME280;9433;42.678;23.360;2022-07-24T02:13:27;95286.44;;;25.12;44.95
18607;BME280;9433;42.678;23.360;2022-07-24T02:15:54;95274.03;;;25.88;43.17
18607;BME280;9433;42.678;23.360;2022-07-24T02:18:21;95272.31;;;25.99;42.71
18607;BME280;9433;42.678;23.360;2022-07-24T02:20:48;95280.34;;;25.73;42.94
18607;BME280;9433;42.678;23.360;2022-07-24T02:23:15;95280.03;;;25.39;40.75
18607;BME280;9433;42.678;23.360;2022-07-24T02:25:43;95272.84;;;26.09;38.54
18607;BME280;9433;42.678;23.360;2022-07-24T02:28:10;95272.59;;;25.94;38.73
18607;BME280;9433;42.678;23.360;2022-07-24T02:30:39;95263.16;;;26.11;37.76
18607;BME280;9433;42.678;23.360;2022-07-24T02:33:06;95270.16;;;26.12;37.64
18607;BME280;9433;42.678;23.360;2022-07-24T02:35:33;95277.94;;;26.33;37.00
18607;BME280;9433;42.678;23.360;2022-07-24T02:38:00;95283.41;;;26.33;36.90
18607;BME280;9433;42.678;23.360;2022-07-24T02:40:27;95288.47;;;26.35;39.44
18607;BME280;9433;42.678;23.360;2022-07-24T02:42:53;95283.78;;;26.12;39.08
18607;BME280;9433;42.678;23.360;2022-07-24T02:45:20;95295.41;;;26.32;39.99
18607;BME280;9433;42.678;23.360;2022-07-24T02:47:49;95279.50;;;26.34;39.32
18607;BME280;9433;42.678;23.360;2022-07-24T02:50:17;95290.09;;;26.16;39.63
18607;BME280;9433;42.678;23.360;2022-07-24T02:52:45;95260.63;;;25.80;40.29
18607;BME280;9433;42.678;23.360;2022-07-24T02:55:12;95291.97;;;24.99;42.73
18607;BME280;9433;42.678;23.360;2022-07-24T02:57:39;95287.13;;;25.83;41.19
18607;BME280;9433;42.678;23.360;2022-07-24T03:00:08;95284.00;;;25.81;41.52
18607;BME280;9433;42.678;23.360;2022-07-24T03:02:35;95285.53;;;26.01;40.84
18607;BME280;9433;42.678;23.360;2022-07-24T03:05:05;95289.78;;;25.21;42.94
18607;BME280;9433;42.678;23.360;2022-07-24T03:07:32;95291.59;;;24.81;43.94
18607;BME280;9433;42.678;23.360;2022-07-24T03:09:59;95294.06;;;24.71;43.72
18607;BME280;9433;42.678;23.360;2022-07-24T03:12:25;95288.47;;;24.64;43.96
18607;BME280;9433;42.678;23.360;2022-07-24T03:14:52;95290.19;;;24.88;44.08
18607;BME280;9433;42.678;23.360;2022-07-24T03:17:19;95283.19;;;25.22;43.02
18607;BME280;9433;42.678;23.360;2022-07-24T03:19:46;95296.44;;;24.41;44.81
18607;BME280;9433;42.678;23.360;2022-07-24T03:22:14;95296.50;;;24.60;44.55
18607;BME280;9433;42.678;23.360;2022-07-24T03:24:40;95269.94;;;24.37;44.29
18607;BME280;9433;42.678;23.360;2022-07-24T03:27:07;95302.28;;;24.90;43.53
18607;BME280;9433;42.678;23.360;2022-07-24T03:29:34;95301.09;;;25.07;42.58
18607;BME280;9433;42.678;23.360;2022-07-24T03:32:02;95297.31;;;25.47;41.66
18607;BME280;9433;42.678;23.360;2022-07-24T03:34:29;95294.50;;;25.24;42.48
18607;BME280;9433;42.678;23.360;2022-07-24T03:36:55;95286.34;;;25.08;42.66
18607;BME280;9433;42.678;23.360;2022-07-24T03:39:24;95292.44;;;24.85;43.96
18607;BME280;9433;42.678;23.360;2022-07-24T03:41:51;95290.22;;;25.07;42.96
18607;BME280;9433;42.678;23.360;2022-07-24T03:44:17;95290.56;;;25.05;43.15
18607;BME280;9433;42.678;23.360;2022-07-24T03:46:44;95303.38;;;24.54;44.87
18607;BME280;9433;42.678;23.360;2022-07-24T03:49:11;95298.88;;;24.61;45.16
18607;BME280;9433;42.678;23.360;2022-07-24T03:51:38;95299.66;;;25.48;42.77
18607;BME280;9433;42.678;23.360;2022-07-24T03:54:05;95306.81;;;25.37;42.55
18607;BME280;9433;42.678;23.360;2022-07-24T03:56:33;95295.88;;;24.82;44.30
18607;BME280;9433;42.678;23.360;2022-07-24T03:58:59;95298.75;;;24.90;44.14
18607;BME280;9433;42.678;23.360;2022-07-24T04:01:26;95296.09;;;24.93;44.08
18607;BME280;9433;42.678;23.360;2022-07-24T04:03:53;95295.88;;;24.82;43.01
18607;BME280;9433;42.678;23.360;2022-07-24T04:06:20;95296.66;;;24.35;43.62
18607;BME280;9433;42.678;23.360;2022-07-24T04:08:47;95299.59;;;24.43;43.73
18607;BME280;9433;42.678;23.360;2022-07-24T04:11:13;95293.53;;;24.81;43.29
18607;BME280;9433;42.678;23.360;2022-07-24T04:13:41;95296.56;;;24.79;44.03
18607;BME280;9433;42.678;23.360;2022-07-24T04:16:08;95309.03;;;25.31;43.22
18607;BME280;9433;42.678;23.360;2022-07-24T04:18:35;95298.75;;;24.90;43.53
18607;BME280;9433;42.678;23.360;2022-07-24T04:21:02;95296.66;;;25.34;43.04
18607;BME280;9433;42.678;23.360;2022-07-24T04:23:28;95298.00;;;25.24;42.57
18607;BME280;9433;42.678;23.360;2022-07-24T04:25:55;95302.84;;;24.99;43.23
18607;BME280;9433;42.678;23.360;2022-07-24T04:28:22;95299.88;;;25.04;43.71
18607;BME280;9433;42.678;23.360;2022-07-24T04:30:50;95289.84;;;25.08;43.80
18607;BME280;9433;42.678;23.360;2022-07-24T04:33:17;95291.47;;;25.29;44.37
18607;BME280;9433;42.678;23.360;2022-07-24T04:35:44;95295.69;;;25.26;43.30
18607;BME280;9433;42.678;23.360;2022-07-24T04:38:11;95296.75;;;25.57;42.20
18607;BME280;9433;42.678;23.360;2022-07-24T04:40:37;95290.28;;;25.65;42.07
18607;BME280;9433;42.678;23.360;2022-07-24T04:43:04;95297.44;;;25.54;42.28
18607;BME280;9433;42.678;23.360;2022-07-24T04:45:31;95295.25;;;26.21;40.61
18607;BME280;9433;42.678;23.360;2022-07-24T04:47:59;95286.78;;;25.65;41.54
18607;BME280;9433;42.678;23.360;2022-07-24T04:50:26;95304.53;;;25.97;42.29
18607;BME280;9433;42.678;23.360;2022-07-24T04:52:52;95308.81;;;25.21;43.12
18607;BME280;9433;42.678;23.360;2022-07-24T04:55:19;95305.13;;;25.87;42.30
18607;BME280;9433;42.678;23.360;2022-07-24T04:57:46;95300.78;;;26.06;42.84
18607;BME280;9433;42.678;23.360;2022-07-24T05:00:14;95304.00;;;26.11;41.92
18607;BME280;9433;42.678;23.360;2022-07-24T05:02:41;95289.19;;;26.09;42.52
18607;BME280;9433;42.678;23.360;2022-07-24T05:05:09;95298.88;;;26.06;42.47
18607;BME280;9433;42.678;23.360;2022-07-24T05:07:36;95308.13;;;25.82;42.67
18607;BME280;9433;42.678;23.360;2022-07-24T05:10:03;95315.63;;;26.08;42.11
18607;BME280;9433;42.678;23.360;2022-07-24T05:12:30;95314.97;;;26.15;42.66
18607;BME280;9433;42.678;23.360;2022-07-24T05:14:57;95317.25;;;26.55;41.68
18607;BME280;9433;42.678;23.360;2022-07-24T05:17:24;95322.97;;;26.69;42.13
18607;BME280;9433;42.678;23.360;2022-07-24T05:19:50;95308.84;;;26.64;42.44
18607;BME280;9433;42.678;23.360;2022-07-24T05:22:19;95313.97;;;26.46;41.51
18607;BME280;9433;42.678;23.360;2022-07-24T05:24:45;95317.03;;;26.90;40.56
18607;BME280;9433;42.678;23.360;2022-07-24T05:27:12;95311.78;;;26.78;40.80
18607;BME280;9433;42.678;23.360;2022-07-24T05:29:39;95306.94;;;26.45;41.22
18607;BME280;9433;42.678;23.360;2022-07-24T05:32:06;95311.31;;;26.27;40.76
18607;BME280;9433;42.678;23.360;2022-07-24T05:34:33;95310.31;;;26.38;40.84
18607;BME280;9433;42.678;23.360;2022-07-24T05:37:00;95312.66;;;26.59;41.07
18607;BME280;9433;42.678;23.360;2022-07-24T05:39:28;95309.50;;;26.80;40.87
18607;BME280;9433;42.678;23.360;2022-07-24T05:41:55;95305.06;;;26.26;41.60
18607;BME280;9433;42.678;23.360;2022-07-24T05:44:22;95314.97;;;25.76;42.74
18607;BME280;9433;42.678;23.360;2022-07-24T05:46:48;95310.25;;;26.54;41.29
18607;BME280;9433;42.678;23.360;2022-07-24T05:49:15;95305.22;;;26.56;41.61
18607;BME280;9433;42.678;23.360;2022-07-24T05:51:42;95305.81;;;26.69;41.52
18607;BME280;9433;42.678;23.360;2022-07-24T05:54:09;95299.13;;;26.89;41.01
18607;BME280;9433;42.678;23.360;2022-07-24T05:56:37;95303.16;;;26.99;41.22
18607;BME280;9433;42.678;23.360;2022-07-24T05:59:04;95301.38;;;27.37;39.49
18607;BME280;9433;42.678;23.360;2022-07-24T06:01:30;95295.69;;;26.69;40.25
18607;BME280;9433;42.678;23.360;2022-07-24T06:03:58;95293.69;;;27.16;39.08
18607;BME280;9433;42.678;23.360;2022-07-24T06:06:25;95302.09;;;27.34;39.65
18607;BME280;9433;42.678;23.360;2022-07-24T06:08:51;95298.31;;;27.42;38.93
18607;BME280;9433;42.678;23.360;2022-07-24T06:11:18;95296.25;;;27.96;38.38
18607;BME280;9433;42.678;23.360;2022-07-24T06:13:46;95304.84;;;27.68;38.84
18607;BME280;9433;42.678;23.360;2022-07-24T06:16:13;95295.84;;;27.63;39.25
18607;BME280;9433;42.678;23.360;2022-07-24T06:18:40;95308.34;;;27.34;39.31
18607;BME280;9433;42.678;23.360;2022-07-24T06:21:07;95299.84;;;28.03;38.58
18607;BME280;9433;42.678;23.360;2022-07-24T06:23:34;95293.84;;;28.28;38.57
18607;BME280;9433;42.678;23.360;2022-07-24T06:26:01;95292.56;;;27.81;38.32
18607;BME280;9433;42.678;23.360;2022-07-24T06:28:28;95284.59;;;28.40;37.51
18607;BME280;9433;42.678;23.360;2022-07-24T06:30:56;95287.56;;;28.65;37.26
18607;BME280;9433;42.678;23.360;2022-07-24T06:33:23;95282.28;;;28.42;36.90
18607;BME280;9433;42.678;23.360;2022-07-24T06:35:50;95289.81;;;28.55;36.11
18607;BME280;9433;42.678;23.360;2022-07-24T06:38:17;95281.75;;;28.29;37.83
18607;BME280;9433;42.678;23.360;2022-07-24T06:40:43;95283.50;;;28.10;37.64
18607;BME280;9433;42.678;23.360;2022-07-24T06:43:10;95273.19;;;27.93;37.64
18607;BME280;9433;42.678;23.360;2022-07-24T06:45:37;95282.44;;;28.19;37.60
18607;BME280;9433;42.678;23.360;2022-07-24T06:48:06;95283.19;;;28.60;36.99
18607;BME280;9433;42.678;23.360;2022-07-24T06:50:33;95276.19;;;29.14;36.35
18607;BME280;9433;42.678;23.360;2022-07-24T06:53:00;95279.72;;;29.15;36.40
18607;BME280;9433;42.678;23.360;2022-07-24T06:55:27;95271.03;;;29.02;37.09
18607;BME280;9433;42.678;23.360;2022-07-24T06:57:53;95279.78;;;28.74;36.90
18607;BME280;9433;42.678;23.360;2022-07-24T07:00:20;95264.91;;;29.30;35.84
18607;BME280;9433;42.678;23.360;2022-07-24T07:02:47;95276.09;;;29.03;36.38
18607;BME280;9433;42.678;23.360;2022-07-24T07:05:16;95272.72;;;29.24;34.97
18607;BME280;9433;42.678;23.360;2022-07-24T07:07:44;95267.75;;;29.52;35.82
18607;BME280;9433;42.678;23.360;2022-07-24T07:10:10;95272.44;;;28.82;35.46
18607;BME280;9433;42.678;23.360;2022-07-24T07:12:38;95264.34;;;29.80;34.47
18607;BME280;9433;42.678;23.360;2022-07-24T07:15:05;95264.44;;;30.12;34.61
18607;BME280;9433;42.678;23.360;2022-07-24T07:17:32;95262.16;;;30.21;33.83
18607;BME280;9433;42.678;23.360;2022-07-24T07:19:59;95264.53;;;30.40;34.08
18607;BME280;9433;42.678;23.360;2022-07-24T07:22:27;95272.72;;;30.62;33.43
18607;BME280;9433;42.678;23.360;2022-07-24T07:24:54;95268.84;;;30.66;33.79
18607;BME280;9433;42.678;23.360;2022-07-24T07:27:21;95264.47;;;30.26;33.47
18607;BME280;9433;42.678;23.360;2022-07-24T07:29:48;95267.66;;;30.89;33.41
18607;BME280;9433;42.678;23.360;2022-07-24T07:32:15;95260.56;;;31.13;33.14
18607;BME280;9433;42.678;23.360;2022-07-24T07:34:41;95248.44;;;31.00;32.82
18607;BME280;9433;42.678;23.360;2022-07-24T07:37:08;95251.91;;;31.18;32.55
18607;BME280;9433;42.678;23.360;2022-07-24T07:39:36;95268.41;;;31.04;31.98
18607;BME280;9433;42.678;23.360;2022-07-24T07:42:04;95257.66;;;31.67;32.99
18607;BME280;9433;42.678;23.360;2022-07-24T07:44:30;95256.56;;;31.46;32.14
18607;BME280;9433;42.678;23.360;2022-07-24T07:46:57;95264.63;;;31.93;32.13
18607;BME280;9433;42.678;23.360;2022-07-24T07:49:24;95257.63;;;31.70;31.85
18607;BME280;9433;42.678;23.360;2022-07-24T07:51:51;95260.19;;;32.10;31.62
18607;BME280;9433;42.678;23.360;2022-07-24T07:54:18;95253.88;;;32.16;30.91
18607;BME280;9433;42.678;23.360;2022-07-24T07:56:46;95249.81;;;32.35;30.27
18607;BME280;9433;42.678;23.360;2022-07-24T07:59:13;95252.03;;;32.55;30.34
18607;BME280;9433;42.678;23.360;2022-07-24T08:01:39;95254.84;;;32.47;30.76
18607;BME280;9433;42.678;23.360;2022-07-24T08:04:06;95258.22;;;32.69;29.89
18607;BME280;9433;42.678;23.360;2022-07-24T08:06:33;95262.38;;;32.88;29.92
18607;BME280;9433;42.678;23.360;2022-07-24T08:09:00;95252.28;;;33.16;29.77
18607;BME280;9433;42.678;23.360;2022-07-24T08:11:26;95257.66;;;32.89;30.55
18607;BME280;9433;42.678;23.360;2022-07-24T08:13:55;95247.81;;;32.88;28.98
18607;BME280;9433;42.678;23.360;2022-07-24T08:16:22;95253.81;;;33.20;28.98
18607;BME280;9433;42.678;23.360;2022-07-24T08:18:49;95256.03;;;32.46;27.88
18607;BME280;9433;42.678;23.360;2022-07-24T08:21:15;95262.03;;;32.31;28.84
18607;BME280;9433;42.678;23.360;2022-07-24T08:23:43;95264.25;;;33.02;27.83
18607;BME280;9433;42.678;23.360;2022-07-24T08:26:10;95272.94;;;32.93;27.03
18607;BME280;9433;42.678;23.360;2022-07-24T08:28:37;95259.25;;;32.34;28.52
18607;BME280;9433;42.678;23.360;2022-07-24T08:31:06;95262.25;;;33.03;28.19
18607;BME280;9433;42.678;23.360;2022-07-24T08:33:32;95260.25;;;33.41;28.04
18607;BME280;9433;42.678;23.360;2022-07-24T08:35:59;95255.31;;;33.63;27.36
18607;BME280;9433;42.678;23.360;2022-07-24T08:38:26;95259.88;;;33.77;28.94
18607;BME280;9433;42.678;23.360;2022-07-24T08:40:53;95259.59;;;33.67;27.21
18607;BME280;9433;42.678;23.360;2022-07-24T08:43:21;95257.06;;;33.80;27.25
18607;BME280;9433;42.678;23.360;2022-07-24T08:45:49;95248.56;;;33.67;28.36
18607;BME280;9433;42.678;23.360;2022-07-24T08:48:20;95253.16;;;33.43;28.47
18607;BME280;9433;42.678;23.360;2022-07-24T08:50:47;95249.91;;;33.86;26.89
18607;BME280;9433;42.678;23.360;2022-07-24T08:53:14;95254.06;;;34.02;29.10
18607;BME280;9433;42.678;23.360;2022-07-24T08:55:41;95253.03;;;33.88;28.97
18607;BME280;9433;42.678;23.360;2022-07-24T08:58:08;95255.00;;;33.88;28.77
18607;BME280;9433;42.678;23.360;2022-07-24T09:00:34;95249.25;;;34.06;28.90
18607;BME280;9433;42.678;23.360;2022-07-24T09:03:02;95243.59;;;34.17;29.50
18607;BME280;9433;42.678;23.360;2022-07-24T09:05:30;95243.94;;;33.91;29.52
18607;BME280;9433;42.678;23.360;2022-07-24T09:08:07;95243.41;;;34.00;27.91
18607;BME280;9433;42.678;23.360;2022-07-24T09:10:34;95226.13;;;33.96;27.66
18607;BME280;9433;42.678;23.360;2022-07-24T09:13:12;95246.09;;;34.07;28.24
18607;BME280;9433;42.678;23.360;2022-07-24T09:15:45;95244.91;;;33.78;27.56
18607;BME280;9433;42.678;23.360;2022-07-24T09:18:25;95238.66;;;34.31;27.57
18607;BME280;9433;42.678;23.360;2022-07-24T09:20:54;95228.97;;;34.20;28.78
18607;BME280;9433;42.678;23.360;2022-07-24T09:23:21;95226.03;;;34.57;28.30
18607;BME280;9433;42.678;23.360;2022-07-24T09:25:53;95237.78;;;34.85;27.32
18607;BME280;9433;42.678;23.360;2022-07-24T09:28:20;95240.91;;;34.87;27.64
18607;BME280;9433;42.678;23.360;2022-07-24T09:30:47;95236.03;;;34.95;27.52
18607;BME280;9433;42.678;23.360;2022-07-24T09:33:16;95239.06;;;34.30;27.18
18607;BME280;9433;42.678;23.360;2022-07-24T09:35:44;95235.47;;;34.06;27.30
18607;BME280;9433;42.678;23.360;2022-07-24T09:38:14;95232.22;;;34.14;27.67
18607;BME280;9433;42.678;23.360;2022-07-24T09:40:44;95229.75;;;34.71;27.22
18607;BME280;9433;42.678;23.360;2022-07-24T09:43:17;95232.50;;;35.38;26.56
18607;BME280;9433;42.678;23.360;2022-07-24T09:45:52;95230.28;;;35.29;26.82
18607;BME280;9433;42.678;23.360;2022-07-24T09:48:21;95221.00;;;35.39;25.93
18607;BME280;9433;42.678;23.360;2022-07-24T09:50:49;95222.16;;;35.42;26.24
18607;BME280;9433;42.678;23.360;2022-07-24T09:53:20;95229.53;;;35.68;25.72
18607;BME280;9433;42.678;23.360;2022-07-24T09:55:57;95215.09;;;35.97;25.65
18607;BME280;9433;42.678;23.360;2022-07-24T09:58:24;95210.72;;;36.16;25.16
18607;BME280;9433;42.678;23.360;2022-07-24T10:00:54;95213.09;;;36.50;25.41
18607;BME280;9433;42.678;23.360;2022-07-24T10:03:25;95205.03;;;36.39;22.57
18607;BME280;9433;42.678;23.360;2022-07-24T10:05:54;95198.59;;;36.75;22.09
18607;BME280;9433;42.678;23.360;2022-07-24T10:08:23;95200.31;;;37.02;23.26
18607;BME280;9433;42.678;23.360;2022-07-24T10:10:50;95199.53;;;37.01;22.22
18607;BME280;9433;42.678;23.360;2022-07-24T10:13:18;95201.75;;;37.52;21.58
18607;BME280;9433;42.678;23.360;2022-07-24T10:15:51;95207.59;;;36.96;22.02
18607;BME280;9433;42.678;23.360;2022-07-24T10:18:20;95201.34;;;36.62;21.60
18607;BME280;9433;42.678;23.360;2022-07-24T10:20:48;95199.44;;;37.34;21.81
18607;BME280;9433;42.678;23.360;2022-07-24T10:23:23;95199.41;;;37.50;22.55
18607;BME280;9433;42.678;23.360;2022-07-24T10:26:04;95188.69;;;37.65;21.58
18607;BME280;9433;42.678;23.360;2022-07-24T10:28:37;95203.59;;;38.22;21.63
18607;BME280;9433;42.678;23.360;2022-07-24T10:31:06;95182.03;;;38.26;21.71
18607;BME280;9433;42.678;23.360;2022-07-24T10:33:35;95193.03;;;38.43;21.21
18607;BME280;9433;42.678;23.360;2022-07-24T10:36:11;95186.00;;;38.64;20.71
18607;BME280;9433;42.678;23.360;2022-07-24T10:38:47;95178.81;;;38.28;20.07
18607;BME280;9433;42.678;23.360;2022-07-24T10:41:22;95180.78;;;38.66;19.44
18607;BME280;9433;42.678;23.360;2022-07-24T10:44:12;95179.03;;;37.82;20.68
18607;BME280;9433;42.678;23.360;2022-07-24T10:47:01;95179.00;;;37.57;19.87
18607;BME280;9433;42.678;23.360;2022-07-24T10:49:41;95157.09;;;37.04;19.91
18607;BME280;9433;42.678;23.360;2022-07-24T10:52:10;95158.56;;;37.09;20.32
18607;BME280;9433;42.678;23.360;2022-07-24T10:54:39;95171.06;;;38.10;19.84
18607;BME280;9433;42.678;23.360;2022-07-24T10:57:06;95164.16;;;37.76;20.09
18607;BME280;9433;42.678;23.360;2022-07-24T10:59:35;95166.91;;;37.51;19.78
18607;BME280;9433;42.678;23.360;2022-07-24T11:02:25;95157.59;;;37.57;19.94
18607;BME280;9433;42.678;23.360;2022-07-24T11:05:22;95154.25;;;38.52;20.70
18607;BME280;9433;42.678;23.360;2022-07-24T11:11:08;95147.84;;;38.17;21.87
18607;BME280;9433;42.678;23.360;2022-07-24T11:13:51;95141.44;;;38.67;19.44
18607;BME280;9433;42.678;23.360;2022-07-24T11:16:20;95145.31;;;39.27;20.54
18607;BME280;9433;42.678;23.360;2022-07-24T11:19:28;95141.03;;;38.56;19.26
18607;BME280;9433;42.678;23.360;2022-07-24T11:22:08;95144.53;;;38.69;18.96
18607;BME280;9433;42.678;23.360;2022-07-24T11:24:40;95138.91;;;39.17;19.48
18607;BME280;9433;42.678;23.360;2022-07-24T11:27:16;95139.06;;;38.78;21.54
18607;BME280;9433;42.678;23.360;2022-07-24T11:29:44;95129.53;;;39.02;20.95
18607;BME280;9433;42.678;23.360;2022-07-24T11:32:12;95133.22;;;39.20;20.27
18607;BME280;9433;42.678;23.360;2022-07-24T11:34:44;95138.72;;;38.76;20.28
18607;BME280;9433;42.678;23.360;2022-07-24T11:37:12;95134.06;;;38.51;19.08
18607;BME280;9433;42.678;23.360;2022-07-24T11:39:40;95124.25;;;38.60;20.25
18607;BME280;9433;42.678;23.360;2022-07-24T11:42:10;95122.06;;;38.76;20.90
18607;BME280;9433;42.678;23.360;2022-07-24T11:44:40;95129.97;;;38.78;22.34
18607;BME280;9433;42.678;23.360;2022-07-24T11:47:09;95120.66;;;38.72;20.38
18607;BME280;9433;42.678;23.360;2022-07-24T11:49:40;95120.38;;;38.44;20.05
18607;BME280;9433;42.678;23.360;2022-07-24T11:52:13;95126.25;;;38.59;21.91
18607;BME280;9433;42.678;23.360;2022-07-24T11:54:41;95115.47;;;37.75;22.05
18607;BME280;9433;42.678;23.360;2022-07-24T11:57:18;95129.69;;;37.23;20.92
18607;BME280;9433;42.678;23.360;2022-07-24T11:59:47;95122.66;;;37.60;21.67
18607;BME280;9433;42.678;23.360;2022-07-24T12:02:14;95134.09;;;37.20;21.58
18607;BME280;9433;42.678;23.360;2022-07-24T12:04:42;95122.03;;;36.68;20.13
18607;BME280;9433;42.678;23.360;2022-07-24T12:07:10;95121.25;;;37.26;20.10
18607;BME280;9433;42.678;23.360;2022-07-24T12:09:48;95121.84;;;37.05;21.53
18607;BME280;9433;42.678;23.360;2022-07-24T12:12:24;95119.47;;;36.90;21.77
18607;BME280;9433;42.678;23.360;2022-07-24T12:14:59;95111.88;;;36.78;22.25
18607;BME280;9433;42.678;23.360;2022-07-24T12:17:27;95117.56;;;36.87;22.39
18607;BME280;9433;42.678;23.360;2022-07-24T12:19:55;95113.94;;;36.90;22.46
18607;BME280;9433;42.678;23.360;2022-07-24T12:22:23;95108.88;;;37.02;22.00
18607;BME280;9433;42.678;23.360;2022-07-24T12:24:51;95111.38;;;37.25;22.83
18607;BME280;9433;42.678;23.360;2022-07-24T12:27:37;95111.88;;;37.88;21.67
18607;BME280;9433;42.678;23.360;2022-07-24T12:30:17;95099.41;;;38.43;21.83
18607;BME280;9433;42.678;23.360;2022-07-24T12:32:59;95103.34;;;37.56;20.98
18607;BME280;9433;42.678;23.360;2022-07-24T12:35:28;95097.78;;;38.20;20.97
18607;BME280;9433;42.678;23.360;2022-07-24T12:37:57;95095.50;;;38.75;20.74
18607;BME280;9433;42.678;23.360;2022-07-24T12:40:26;95094.47;;;39.48;21.71
18607;BME280;9433;42.678;23.360;2022-07-24T12:43:06;95088.81;;;39.61;20.45
18607;BME280;9433;42.678;23.360;2022-07-24T12:45:33;95086.72;;;39.43;19.66
18607;BME280;9433;42.678;23.360;2022-07-24T12:51:08;95074.94;;;40.10;19.60
18607;BME280;9433;42.678;23.360;2022-07-24T12:53:38;95076.13;;;40.00;20.12
18607;BME280;9433;42.678;23.360;2022-07-24T12:56:08;95068.34;;;40.63;19.83
18607;BME280;9433;42.678;23.360;2022-07-24T12:58:56;95065.88;;;40.47;19.81
18607;BME280;9433;42.678;23.360;2022-07-24T13:01:25;95057.94;;;40.18;19.60
18607;BME280;9433;42.678;23.360;2022-07-24T13:03:59;95059.72;;;39.93;19.35
18607;BME280;9433;42.678;23.360;2022-07-24T13:06:34;95062.78;;;39.86;18.54
18607;BME280;9433;42.678;23.360;2022-07-24T13:09:02;95055.16;;;40.18;18.16
18607;BME280;9433;42.678;23.360;2022-07-24T13:11:29;95054.56;;;40.41;18.84
18607;BME280;9433;42.678;23.360;2022-07-24T13:13:57;95046.50;;;40.43;18.85